Travis Air Force Base Fairfield US
ICAO: KSUU
IATA: SUU
Category: Large
Scheduled Services: No

Elevation: 62 ft
TransAlt. 18000 ft.

Airport Communications:
APP:119.9
ATIS:116.4
CLNC DEL:127.55
DEP:119.9
GND:121.8
PMSV METRO:26.92
COMD POST:141.9
PTD:28.557
TWR:120.75
AERO CLUB UNICOM:123.3

KSUU Zoom In..

If you have problems with the map follow the link
https://www.worldairports.se/pages/airport.php?
ICAO=KSUU

Runways:

(A) RW 03L length 11001 ft width 150 ft
ILS 108.35 / hdg 32

(B) RW 03R length 10995 ft width 150 ft
---- / hdg 32

(C) RW 21L length 10995 ft width 150 ft
ILS 110.10 / hdg 212

(D) RW 21R length 11001 ft width 150 ft
ILS 108.35 / hdg 212

Location; KSUU
Day. 12 / Time. 22.58 Zulu
* Altimeter: 30.26
* Temperature: 20° c. 68°f.
* Wind from: 230° Speed 12 kn.
Dewpoint: 14° c.
Visibility: 10 Statute Miles.
Clouds: Broken 13000 ft.

KSUU 122258Z AUTO 23012KT 10SM BKN130 20/14 A3026 RMK AO2 VIS 2 1/4 RWY03L SLP254 T01950143 $


Wind From 230°
Speed 12 kn.

 
 
jpsmedia worldairports.se 2019   terms of use